Time;durP1;ratioP1;P1;durP2;ratioP2;P2;SDS_P1;SDS_P2;PMS_P1;PMS_P2;Temp;Humidity;BMP_temperature;BMP_pressure;BME280_temperature;BME280_humidity;BME280_pressure;Samples;Min_cycle;Max_cycle;Signal;HPM_P1;HPM_P2
2022/12/21 00:01:44;;;;;;;10.30;6.60;;;;;;;3.43;66.08;96757.30;105115;1303;22471;-81
2022/12/21 00:04:15;;;;;;;10.10;5.40;;;;;;;3.40;66.19;96762.58;105323;1280;47323;-82
2022/12/21 00:06:46;;;;;;;10.80;5.90;;;;;;;3.33;66.33;96762.45;105149;1288;22481;-81
2022/12/21 00:09:18;;;;;;;10.30;6.00;;;;;;;3.29;66.19;96763.21;105142;1287;22476;-81
2022/12/21 00:11:49;;;;;;;11.10;6.20;;;;;;;3.26;66.28;96765.99;105126;1281;22464;-82
2022/12/21 00:14:20;;;;;;;11.70;5.70;;;;;;;3.22;66.29;96771.90;105462;1304;24326;-82
2022/12/21 00:16:53;;;;;;;11.80;6.50;;;;;;;3.17;66.07;96772.15;105487;1297;22497;-82
2022/12/21 00:19:25;;;;;;;11.30;6.20;;;;;;;3.11;66.07;96773.54;105277;1297;22481;-82
2022/12/21 00:21:56;;;;;;;14.00;7.50;;;;;;;3.07;66.19;96776.16;105212;1302;22468;-82
2022/12/21 00:24:27;;;;;;;11.90;5.80;;;;;;;3.05;66.17;96771.25;104019;1297;2012934;-82
2022/12/21 00:26:59;;;;;;;11.60;6.60;;;;;;;3.06;66.16;96775.30;105512;1303;22524;-82
2022/12/21 00:29:31;;;;;;;14.10;8.10;;;;;;;3.04;66.31;96777.52;105328;1281;22466;-81
2022/12/21 00:32:02;;;;;;;13.60;6.90;;;;;;;3.00;66.56;96771.55;105214;1288;26473;-81
2022/12/21 00:34:32;;;;;;;11.60;7.20;;;;;;;2.92;66.81;96775.19;105137;1302;24240;-82
2022/12/21 00:37:03;;;;;;;11.90;7.50;;;;;;;2.88;66.98;96765.80;105184;1296;22576;-82
2022/12/21 00:39:35;;;;;;;15.60;9.40;;;;;;;2.83;67.13;96771.25;105165;1302;22486;-82
2022/12/21 00:42:06;;;;;;;16.30;9.40;;;;;;;2.79;67.22;96769.27;105288;1301;22474;-81
2022/12/21 00:44:38;;;;;;;14.70;8.00;;;;;;;2.81;67.28;96764.20;105131;1296;22710;-81
2022/12/21 00:47:09;;;;;;;14.50;6.20;;;;;;;2.83;67.22;96752.19;105134;1296;22478;-81
2022/12/21 00:49:40;;;;;;;16.70;6.90;;;;;;;2.86;67.13;96743.88;105157;1286;25258;-81
2022/12/21 00:52:11;;;;;;;12.50;7.30;;;;;;;2.87;67.33;96724.86;105186;1293;25913;-81
2022/12/21 00:54:42;;;;;;;11.20;6.40;;;;;;;2.81;67.33;96711.61;105118;1294;27387;-81
2022/12/21 00:57:13;;;;;;;13.60;7.70;;;;;;;2.80;67.83;96695.76;105154;1289;22445;-81
2022/12/21 00:59:46;;;;;;;17.80;8.20;;;;;;;2.76;67.95;96705.38;105222;1297;22464;-80
2022/12/21 01:02:17;;;;;;;13.80;8.00;;;;;;;2.69;68.40;96702.55;105174;1288;22456;-81
2022/12/21 01:04:48;;;;;;;15.10;9.70;;;;;;;2.63;68.73;96695.90;105207;1287;34678;-81
2022/12/21 01:07:19;;;;;;;14.40;9.20;;;;;;;2.62;69.01;96684.61;105158;1281;22471;-81
2022/12/21 01:09:51;;;;;;;15.40;8.10;;;;;;;2.60;69.49;96700.39;105225;1294;22469;-81
2022/12/21 01:12:22;;;;;;;13.30;7.80;;;;;;;2.60;69.98;96694.88;105198;1298;24326;-81
2022/12/21 01:14:57;;;;;;;13.70;6.70;;;;;;;2.65;71.02;96690.81;105142;1281;32215;-82
2022/12/21 01:17:28;;;;;;;11.40;6.60;;;;;;;2.72;71.87;96693.48;105175;1295;22480;-81
2022/12/21 01:20:00;;;;;;;15.40;8.30;;;;;;;2.81;72.28;96698.09;105508;1296;22475;-82
2022/12/21 01:22:31;;;;;;;16.10;6.60;;;;;;;2.88;72.64;96693.61;105111;1305;22538;-82
2022/12/21 01:25:02;;;;;;;14.80;6.20;;;;;;;2.92;72.77;96702.38;105101;1281;27226;-81
2022/12/21 01:27:33;;;;;;;10.90;7.50;;;;;;;2.94;73.20;96688.55;105140;1277;22481;-81
2022/12/21 01:30:04;;;;;;;13.40;6.90;;;;;;;2.99;73.64;96706.70;105159;1297;22471;-82
2022/12/21 01:32:38;;;;;;;14.10;7.40;;;;;;;3.02;73.51;96701.25;105221;1302;22460;-82
2022/12/21 01:35:10;;;;;;;14.10;8.90;;;;;;;3.08;73.59;96700.01;105120;1303;24923;-82
2022/12/21 01:37:41;;;;;;;12.90;8.70;;;;;;;3.10;73.45;96701.92;105123;1305;22480;-82
2022/12/21 01:40:16;;;;;;;12.80;7.90;;;;;;;3.09;73.50;96711.35;105158;1291;23784;-82
2022/12/21 01:42:47;;;;;;;12.70;6.70;;;;;;;3.06;73.71;96722.28;105226;1296;25712;-82
2022/12/21 01:45:23;;;;;;;10.60;6.00;;;;;;;3.04;73.97;96723.92;105183;1305;22471;-82
2022/12/21 01:47:58;;;;;;;12.20;6.30;;;;;;;3.08;74.29;96715.52;105127;1305;22462;-82
2022/12/21 01:50:39;;;;;;;10.10;5.30;;;;;;;3.10;74.53;96710.74;105234;1280;22529;-83
2022/12/21 01:53:16;;;;;;;14.50;7.40;;;;;;;3.07;74.65;96700.14;105499;1286;25369;-84
2022/12/21 01:55:51;;;;;;;13.00;6.70;;;;;;;3.07;74.82;96697.04;105427;1303;28256;-84
2022/12/21 01:58:24;;;;;;;12.20;6.40;;;;;;;3.05;74.82;96679.23;105449;1304;22482;-84
2022/12/21 02:01:00;;;;;;;10.60;6.30;;;;;;;3.03;74.88;96675.52;105451;1303;24356;-84
2022/12/21 02:03:35;;;;;;;15.60;6.90;;;;;;;2.99;74.96;96669.86;105528;1305;25524;-83
2022/12/21 02:06:10;;;;;;;14.20;8.20;;;;;;;2.94;75.10;96672.48;105525;1292;22474;-83
2022/12/21 02:08:42;;;;;;;12.70;7.70;;;;;;;2.93;75.37;96675.48;105456;1305;22508;-83
2022/12/21 02:11:15;;;;;;;15.00;9.00;;;;;;;2.89;75.57;96660.85;105206;1295;22632;-84
2022/12/21 02:13:46;;;;;;;13.60;7.40;;;;;;;2.88;75.68;96659.94;105404;1296;22559;-83
2022/12/21 02:16:30;;;;;;;13.70;8.30;;;;;;;2.89;75.88;96654.92;105426;1297;22457;-84
2022/12/21 02:19:38;;;;;;;10.00;5.90;;;;;;;2.90;76.07;96656.52;105482;1290;23298;-83
2022/12/21 02:22:17;;;;;;;14.00;8.10;;;;;;;2.94;76.42;96648.11;105115;1297;22470;-83
2022/12/21 02:25:42;;;;;;;9.50;5.50;;;;;;;2.96;76.51;96657.19;104136;1305;1263730;-82
2022/12/21 02:28:52;;;;;;;12.00;6.80;;;;;;;2.97;76.69;96656.85;105055;1304;25285;-82
2022/12/21 02:31:32;;;;;;;12.80;7.40;;;;;;;2.99;76.98;96653.33;105359;1305;22597;-82
2022/12/21 02:34:17;;;;;;;10.80;5.90;;;;;;;3.02;77.23;96658.41;105253;1305;26092;-82
2022/12/21 02:37:01;;;;;;;9.20;4.80;;;;;;;3.04;77.43;96653.02;105041;1305;22520;-82
2022/12/21 02:39:42;;;;;;;11.40;6.80;;;;;;;3.08;77.74;96647.42;105379;1285;22491;-82
2022/12/21 02:45:19;;;;;;;11.10;6.30;;;;;;;3.21;77.82;96642.42;105016;1305;24415;-82
2022/12/21 02:47:56;;;;;;;9.50;5.30;;;;;;;3.27;77.71;96654.77;105438;1291;22494;-83
2022/12/21 02:50:33;;;;;;;10.20;6.20;;;;;;;3.26;77.58;96654.34;105091;1281;22467;-82
2022/12/21 02:53:13;;;;;;;11.00;7.40;;;;;;;3.24;77.50;96662.71;105501;1290;22498;-83
2022/12/21 02:55:46;;;;;;;13.20;7.30;;;;;;;3.20;77.46;96655.18;105007;1305;47781;-83
2022/12/21 02:58:19;;;;;;;12.20;7.60;;;;;;;3.17;77.78;96657.10;105115;1290;22461;-83
2022/12/21 03:01:08;;;;;;;15.40;7.20;;;;;;;3.14;77.82;96657.11;105104;1305;24344;-83
2022/12/21 03:04:01;;;;;;;9.80;5.60;;;;;;;3.14;78.32;96661.77;105382;1297;23247;-82
2022/12/21 03:06:53;;;;;;;9.70;5.90;;;;;;;3.10;78.49;96669.15;105413;1297;22466;-83
2022/12/21 03:09:35;;;;;;;11.10;6.20;;;;;;;3.10;78.70;96666.53;104983;1283;22483;-83
2022/12/21 03:12:22;;;;;;;11.20;7.00;;;;;;;3.08;78.81;96658.42;105349;1296;22509;-83
2022/12/21 03:14:57;;;;;;;14.40;8.50;;;;;;;3.08;79.20;96643.60;105170;1297;46757;-83
2022/12/21 03:17:38;;;;;;;9.90;5.60;;;;;;;3.08;79.07;96651.88;105044;1304;25360;-82
2022/12/21 03:20:13;;;;;;;10.90;6.70;;;;;;;3.09;79.29;96650.47;105001;1305;24274;-83
2022/12/21 03:22:58;;;;;;;12.20;7.60;;;;;;;3.07;79.33;96651.35;105075;1290;22569;-83
2022/12/21 03:25:35;;;;;;;12.10;8.20;;;;;;;3.07;79.52;96655.16;105248;1305;53811;-83
2022/12/21 03:28:13;;;;;;;10.70;6.00;;;;;;;3.05;79.56;96650.41;105427;1305;25397;-83
2022/12/21 03:30:47;;;;;;;12.40;7.50;;;;;;;3.04;79.66;96645.04;105440;1305;24359;-84
2022/12/21 03:33:22;;;;;;;11.80;7.40;;;;;;;3.03;80.10;96618.20;105432;1305;22514;-84
2022/12/21 03:35:57;;;;;;;12.40;8.00;;;;;;;3.01;80.21;96610.16;105392;1296;63575;-83
2022/12/21 03:38:33;;;;;;;12.40;7.30;;;;;;;2.97;80.37;96613.06;105419;1303;22471;-83
2022/12/21 03:41:10;;;;;;;12.80;7.80;;;;;;;2.95;80.53;96631.41;105417;1304;22579;-83
2022/12/21 03:43:43;;;;;;;11.90;7.50;;;;;;;2.93;81.02;96635.27;105333;1305;64700;-83
2022/12/21 03:46:21;;;;;;;13.70;7.50;;;;;;;2.92;81.17;96643.75;105393;1285;23523;-83
2022/12/21 03:48:57;;;;;;;9.70;6.30;;;;;;;2.98;81.92;96644.91;105372;1305;22488;-83
2022/12/21 03:51:36;;;;;;;10.10;5.60;;;;;;;3.04;82.15;96647.14;105109;1305;22654;-83
2022/12/21 03:54:16;;;;;;;13.20;6.10;;;;;;;3.14;82.54;96642.80;105291;1305;27712;-83
2022/12/21 03:56:48;;;;;;;12.50;6.10;;;;;;;3.22;82.60;96648.89;105121;1305;22479;-83
2022/12/21 03:59:20;;;;;;;8.70;4.90;;;;;;;3.25;82.43;96643.05;105405;1305;22537;-83
2022/12/21 04:01:59;;;;;;;11.60;6.40;;;;;;;3.22;82.32;96651.35;105115;1296;23515;-83
2022/12/21 04:04:36;;;;;;;11.10;6.30;;;;;;;3.16;82.35;96659.92;105262;1305;22510;-82
2022/12/21 04:07:10;;;;;;;12.00;7.10;;;;;;;3.14;82.50;96664.60;105127;1283;22485;-82
2022/12/21 04:09:41;;;;;;;28.70;18.10;;;;;;;2.91;81.42;96670.41;105450;1304;24285;-83
2022/12/21 04:15:03;;;;;;;37.80;19.40;;;;;;;1.14;79.43;96675.31;105060;1305;23493;-83
2022/12/21 04:17:34;;;;;;;44.00;25.90;;;;;;;0.43;80.52;96676.25;105344;1305;24240;-83
2022/12/21 04:20:06;;;;;;;44.60;24.00;;;;;;;-0.02;81.29;96680.58;105322;1305;22517;-82
2022/12/21 04:28:26;;;;;;;32.60;18.30;;;;;;;-0.52;85.84;96689.66;105458;1305;22460;-83
2022/12/21 04:30:58;;;;;;;48.50;29.20;;;;;;;-0.20;87.15;96684.80;105477;1291;22569;-83
2022/12/21 04:33:30;;;;;;;41.80;25.20;;;;;;;-0.18;86.68;96685.50;105455;1305;22476;-83
2022/12/21 04:38:50;;;;;;;34.80;21.10;;;;;;;-0.06;86.27;96694.34;105421;1305;24489;-83
2022/12/21 04:41:22;;;;;;;26.90;17.10;;;;;;;0.07;87.70;96686.93;105403;1302;23836;-83
2022/12/21 04:43:56;;;;;;;19.60;12.20;;;;;;;0.43;88.47;96677.88;105281;1302;23123;-82
2022/12/21 04:46:27;;;;;;;35.80;22.30;;;;;;;0.70;88.51;96685.00;105379;1305;22975;-83
2022/12/21 04:48:59;;;;;;;37.80;24.90;;;;;;;0.70;87.20;96678.09;105337;1293;22466;-84
2022/12/21 04:51:29;;;;;;;19.90;12.50;;;;;;;0.57;86.55;96667.49;105380;1305;24503;-83
2022/12/21 04:54:04;;;;;;;15.40;8.70;;;;;;;0.81;88.46;96656.92;105350;1287;45605;-83
2022/12/21 04:56:35;;;;;;;10.00;6.60;;;;;;;1.18;89.51;96658.36;105398;1302;22471;-83
2022/12/21 04:59:07;;;;;;;14.70;9.50;;;;;;;1.44;89.30;96655.70;105419;1290;22556;-83
2022/12/21 05:01:38;;;;;;;12.40;8.40;;;;;;;1.57;88.65;96662.06;105391;1290;25463;-83
2022/12/21 05:04:10;;;;;;;15.60;10.20;;;;;;;1.64;88.96;96651.97;105319;1282;27146;-84
2022/12/21 05:06:41;;;;;;;12.50;8.00;;;;;;;1.82;89.03;96655.84;105389;1305;25658;-84
2022/12/21 05:09:15;;;;;;;13.10;8.20;;;;;;;1.94;88.79;96651.11;105359;1305;25218;-84
2022/12/21 05:11:46;;;;;;;14.90;10.20;;;;;;;1.96;88.34;96649.48;105426;1297;22465;-84
2022/12/21 05:14:18;;;;;;;10.80;6.00;;;;;;;2.05;88.74;96648.37;105373;1297;22592;-84
2022/12/21 05:16:51;;;;;;;12.20;6.10;;;;;;;2.25;88.97;96650.30;105418;1305;22478;-84
2022/12/21 05:19:24;;;;;;;13.50;6.30;;;;;;;2.48;88.96;96659.64;105422;1303;23277;-84
2022/12/21 05:21:55;;;;;;;11.40;7.30;;;;;;;2.58;88.54;96671.81;105414;1305;22462;-84
2022/12/21 05:24:26;;;;;;;8.30;5.70;;;;;;;2.60;88.27;96661.43;105421;1304;22694;-84
2022/12/21 05:26:58;;;;;;;13.70;7.80;;;;;;;2.61;88.09;96658.33;105291;1305;22489;-84
2022/12/21 05:29:29;;;;;;;11.50;6.90;;;;;;;2.57;87.53;96661.42;105438;1305;24256;-84
2022/12/21 05:32:02;;;;;;;12.30;8.00;;;;;;;2.49;87.39;96660.13;105306;1305;24303;-84
2022/12/21 05:34:33;;;;;;;12.50;7.80;;;;;;;2.48;87.46;96657.99;105320;1305;22637;-84
2022/12/21 05:37:04;;;;;;;13.00;7.70;;;;;;;2.45;87.29;96661.34;105444;1302;22483;-84
2022/12/21 05:39:35;;;;;;;14.20;8.70;;;;;;;2.40;87.28;96665.98;105449;1294;22530;-84
2022/12/21 05:42:06;;;;;;;12.60;7.50;;;;;;;2.41;87.46;96677.15;105451;1302;22517;-84
2022/12/21 05:44:37;;;;;;;10.30;6.00;;;;;;;2.46;87.58;96691.14;105356;1296;52226;-84
2022/12/21 05:47:08;;;;;;;11.40;6.70;;;;;;;2.56;87.96;96683.59;105365;1305;22512;-84
2022/12/21 05:49:40;;;;;;;10.20;5.80;;;;;;;2.60;87.86;96685.17;105388;1305;22577;-84
2022/12/21 05:52:11;;;;;;;11.60;6.50;;;;;;;2.59;87.56;96681.52;105288;1283;24171;-84
2022/12/21 05:54:43;;;;;;;10.70;6.10;;;;;;;2.63;87.48;96688.14;105256;1299;48050;-84
2022/12/21 05:57:14;;;;;;;9.00;5.60;;;;;;;2.64;87.50;96692.15;105448;1305;22660;-84
2022/12/21 05:59:48;;;;;;;11.20;6.10;;;;;;;2.67;87.44;96679.77;105413;1304;22517;-84
2022/12/21 06:02:20;;;;;;;12.40;7.10;;;;;;;2.71;87.51;96685.30;105417;1291;22467;-83
2022/12/21 06:04:51;;;;;;;13.90;8.40;;;;;;;2.71;87.38;96679.30;105340;1305;25310;-84
2022/12/21 06:07:22;;;;;;;11.10;6.60;;;;;;;2.65;87.28;96677.52;105381;1305;22664;-84
2022/12/21 06:09:53;;;;;;;10.70;6.00;;;;;;;2.63;87.32;96673.71;105404;1305;22486;-84
2022/12/21 06:12:24;;;;;;;12.90;6.60;;;;;;;2.59;87.28;96673.96;105404;1275;22515;-84
2022/12/21 06:14:58;;;;;;;12.50;7.00;;;;;;;2.54;87.27;96677.22;105373;1303;22498;-84
2022/12/21 06:17:30;;;;;;;12.90;8.80;;;;;;;2.54;87.44;96671.30;105449;1295;22484;-83
2022/12/21 06:20:02;;;;;;;12.60;8.60;;;;;;;2.52;87.20;96672.13;105487;1304;22656;-84
2022/12/21 06:22:35;;;;;;;11.30;6.80;;;;;;;2.47;87.08;96676.97;105429;1299;22484;-84
2022/12/21 06:25:07;;;;;;;11.20;6.20;;;;;;;2.45;87.28;96679.56;105430;1298;22499;-84
2022/12/21 06:27:38;;;;;;;12.30;7.00;;;;;;;2.52;87.57;96685.68;105446;1305;22636;-84
2022/12/21 06:30:11;;;;;;;10.10;6.50;;;;;;;2.54;87.53;96681.30;105399;1305;22510;-84
2022/12/21 06:32:43;;;;;;;12.10;7.20;;;;;;;2.54;87.49;96671.50;105451;1305;25784;-84
2022/12/21 06:35:14;;;;;;;9.50;4.80;;;;;;;2.52;87.44;96670.44;105370;1306;37318;-84
2022/12/21 06:37:47;;;;;;;6.70;4.00;;;;;;;2.52;87.78;96661.02;105495;1303;22510;-85
2022/12/21 06:40:22;;;;;;;9.00;5.10;;;;;;;2.60;88.19;96645.89;105382;1305;22489;-84
2022/12/21 06:42:53;;;;;;;9.50;5.70;;;;;;;2.69;88.00;96658.66;105449;1303;22588;-84
2022/12/21 06:45:24;;;;;;;11.30;6.10;;;;;;;2.76;88.03;96664.90;105330;1305;26108;-84
2022/12/21 06:47:56;;;;;;;10.80;6.50;;;;;;;2.82;87.58;96663.42;105501;1305;24236;-84
2022/12/21 06:50:30;;;;;;;8.60;5.60;;;;;;;2.87;87.50;96668.26;105420;1305;22999;-85
2022/12/21 06:53:01;;;;;;;11.30;6.30;;;;;;;2.91;87.34;96677.48;105398;1305;22476;-84
2022/12/21 06:55:32;;;;;;;12.40;5.80;;;;;;;2.91;87.24;96681.20;105404;1294;25373;-84
2022/12/21 06:58:03;;;;;;;10.10;5.30;;;;;;;2.89;87.21;96671.44;105508;1302;22492;-85
2022/12/21 07:00:34;;;;;;;7.10;4.30;;;;;;;2.91;86.96;96675.71;105407;1296;22476;-84
2022/12/21 07:03:05;;;;;;;9.00;4.70;;;;;;;2.94;86.98;96684.05;105399;1305;22630;-85
2022/12/21 07:05:37;;;;;;;10.20;5.90;;;;;;;2.94;86.90;96685.92;105299;1280;46439;-85
2022/12/21 07:08:08;;;;;;;9.40;5.50;;;;;;;2.94;86.81;96690.23;105342;1299;22463;-84
2022/12/21 07:10:41;;;;;;;11.40;6.00;;;;;;;2.97;86.71;96698.17;105348;1305;22482;-84
2022/12/21 07:13:12;;;;;;;8.70;5.70;;;;;;;3.02;86.67;96694.48;105470;1305;22487;-85
2022/12/21 07:15:43;;;;;;;11.90;5.90;;;;;;;3.03;86.46;96692.57;105360;1305;22511;-84
2022/12/21 07:18:17;;;;;;;10.80;6.60;;;;;;;3.09;86.36;96689.72;105396;1304;22469;-84
2022/12/21 07:20:48;;;;;;;11.70;6.20;;;;;;;3.24;86.16;96682.52;105417;1303;22572;-85
2022/12/21 07:23:19;;;;;;;12.80;7.30;;;;;;;3.42;85.88;96682.63;105430;1306;22469;-85
2022/12/21 07:25:51;;;;;;;11.70;6.60;;;;;;;3.62;85.38;96684.02;105268;1305;24457;-85
2022/12/21 07:28:22;;;;;;;9.50;5.80;;;;;;;3.93;84.99;96677.08;105311;1311;22487;-84
2022/12/21 07:31:02;;;;;;;8.30;5.30;;;;;;;4.28;84.37;96664.38;105333;1302;22489;-85
2022/12/21 07:33:34;;;;;;;10.40;6.40;;;;;;;4.45;83.11;96659.95;105287;1286;22460;-84
2022/12/21 07:36:10;;;;;;;8.90;5.50;;;;;;;4.63;82.05;96648.89;105292;1305;23303;-85
2022/12/21 07:38:42;;;;;;;9.30;5.60;;;;;;;4.55;81.22;96646.15;105308;1302;26559;-85
2022/12/21 07:41:15;;;;;;;12.00;7.30;;;;;;;4.54;80.98;96639.61;105312;1304;22491;-84
2022/12/21 07:43:46;;;;;;;11.40;6.40;;;;;;;4.49;80.59;96634.49;105311;1309;22538;-84
2022/12/21 07:46:18;;;;;;;10.40;5.40;;;;;;;4.36;80.30;96648.98;105389;1294;22499;-84
2022/12/21 07:48:50;;;;;;;9.40;5.40;;;;;;;4.35;80.65;96647.59;105397;1295;22483;-84
2022/12/21 07:51:21;;;;;;;11.30;6.50;;;;;;;4.46;80.23;96642.73;105401;1288;23298;-84
2022/12/21 07:53:55;;;;;;;8.70;5.20;;;;;;;4.47;79.85;96642.17;105374;1305;24018;-82
2022/12/21 07:56:26;;;;;;;9.70;5.50;;;;;;;4.34;79.57;96642.13;105425;1306;25608;-83
2022/12/21 07:58:59;;;;;;;11.20;7.40;;;;;;;4.10;79.92;96635.31;105315;1311;24464;-83
2022/12/21 08:01:31;;;;;;;11.10;5.30;;;;;;;3.96;80.49;96637.64;105394;1302;22691;-83
2022/12/21 08:04:02;;;;;;;9.60;5.90;;;;;;;3.88;80.75;96635.71;105221;1311;49897;-83
2022/12/21 08:06:33;;;;;;;11.70;6.80;;;;;;;3.82;81.04;96629.78;105394;1310;26397;-83
2022/12/21 08:09:05;;;;;;;10.40;6.50;;;;;;;3.73;81.26;96626.52;105300;1306;22485;-83
2022/12/21 08:11:36;;;;;;;9.20;4.90;;;;;;;3.69;81.58;96616.70;105292;1307;22934;-84
2022/12/21 08:14:09;;;;;;;9.40;4.60;;;;;;;3.64;81.71;96618.27;105283;1307;53908;-83
2022/12/21 08:16:41;;;;;;;10.00;6.00;;;;;;;3.57;81.89;96623.82;105445;1289;22477;-84
2022/12/21 08:19:12;;;;;;;9.30;5.60;;;;;;;3.51;82.20;96614.31;105457;1304;24321;-84
2022/12/21 08:21:43;;;;;;;11.60;5.90;;;;;;;3.46;82.37;96609.39;105390;1311;22551;-83
2022/12/21 08:24:14;;;;;;;9.30;5.20;;;;;;;3.45;82.42;96623.89;105336;1306;57145;-84
2022/12/21 08:26:46;;;;;;;9.20;4.90;;;;;;;3.48;82.61;96624.88;105298;1307;23359;-84
2022/12/21 08:29:17;;;;;;;9.10;5.60;;;;;;;3.53;82.63;96613.30;105321;1305;22466;-84
2022/12/21 08:31:48;;;;;;;11.60;5.80;;;;;;;3.60;82.67;96619.73;105286;1293;22464;-84
2022/12/21 08:34:19;;;;;;;7.60;4.70;;;;;;;3.66;82.54;96628.39;105224;1310;52370;-84
2022/12/21 08:36:51;;;;;;;5.90;4.50;;;;;;;3.71;82.57;96640.48;105377;1307;25357;-84
2022/12/21 08:39:22;;;;;;;7.50;4.40;;;;;;;3.73;82.45;96627.61;105386;1287;25361;-83
2022/12/21 08:41:53;;;;;;;10.40;5.60;;;;;;;3.72;82.26;96639.13;105364;1289;22475;-84
2022/12/21 08:44:24;;;;;;;10.80;5.90;;;;;;;3.74;82.28;96645.30;105268;1296;38498;-83
2022/12/21 08:46:55;;;;;;;9.10;5.40;;;;;;;3.73;82.29;96629.94;105412;1305;22483;-84
2022/12/21 08:49:26;;;;;;;10.20;6.20;;;;;;;3.73;82.10;96605.13;105392;1298;22478;-84
2022/12/21 08:51:57;;;;;;;8.70;4.60;;;;;;;3.69;82.22;96612.13;105396;1297;22709;-84
2022/12/21 08:54:29;;;;;;;9.50;5.80;;;;;;;3.63;82.44;96605.19;105303;1298;53822;-84
2022/12/21 08:57:04;;;;;;;8.10;5.50;;;;;;;3.57;82.71;96602.90;105402;1305;24288;-84
2022/12/21 08:59:35;;;;;;;11.70;6.40;;;;;;;3.57;82.87;96594.46;105393;1305;25445;-84
2022/12/21 09:02:06;;;;;;;7.90;4.00;;;;;;;3.58;83.15;96611.45;105434;1293;24381;-85
2022/12/21 09:04:37;;;;;;;9.30;5.30;;;;;;;3.60;83.18;96604.56;105431;1302;50093;-85
2022/12/21 09:07:09;;;;;;;11.30;6.10;;;;;;;3.64;83.21;96590.69;105469;1302;22472;-84
2022/12/21 09:09:40;;;;;;;8.40;5.10;;;;;;;3.70;83.07;96595.73;105419;1305;22617;-84
2022/12/21 09:12:11;;;;;;;9.60;5.50;;;;;;;3.72;83.12;96602.80;105341;1305;22464;-85
2022/12/21 09:14:43;;;;;;;11.80;5.30;;;;;;;3.75;82.93;96580.40;105290;1291;43343;-86
2022/12/21 09:17:14;;;;;;;10.10;5.70;;;;;;;3.82;82.74;96574.82;105405;1303;22472;-85
2022/12/21 09:19:46;;;;;;;9.70;5.90;;;;;;;3.86;82.57;96565.88;105440;1305;22505;-85
2022/12/21 09:22:17;;;;;;;6.90;4.40;;;;;;;3.87;82.41;96564.78;105409;1305;22507;-84
2022/12/21 09:24:49;;;;;;;8.90;5.40;;;;;;;3.89;82.30;96551.13;105414;1304;25154;-85
2022/12/21 09:27:22;;;;;;;9.10;5.20;;;;;;;3.96;82.44;96548.05;105449;1304;22463;-84
2022/12/21 09:29:54;;;;;;;8.30;3.50;;;;;;;4.06;82.32;96551.04;105430;1294;22482;-84
2022/12/21 09:32:25;;;;;;;9.90;5.60;;;;;;;4.13;82.09;96564.91;105461;1304;22513;-84
2022/12/21 09:34:56;;;;;;;9.50;4.30;;;;;;;4.20;81.90;96557.14;105362;1303;28440;-84
2022/12/21 09:37:29;;;;;;;7.50;4.00;;;;;;;4.28;81.65;96563.62;105434;1305;23403;-84
2022/12/21 09:40:00;;;;;;;8.20;4.50;;;;;;;4.41;81.23;96545.30;105429;1284;22520;-84
2022/12/21 09:42:43;;;;;;;7.40;4.30;;;;;;;4.51;81.01;96531.84;105416;1290;22624;-84
2022/12/21 09:45:22;;;;;;;6.30;4.10;;;;;;;4.48;80.39;96519.45;105360;1299;22518;-84
2022/12/21 09:47:58;;;;;;;9.00;5.00;;;;;;;4.42;80.57;96532.80;105424;1304;22467;-84
2022/12/21 09:50:32;;;;;;;10.40;5.30;;;;;;;4.41;80.51;96529.12;105452;1305;22485;-83
2022/12/21 09:53:11;;;;;;;9.10;5.10;;;;;;;4.45;80.12;96521.73;105449;1304;22486;-84
2022/12/21 09:55:47;;;;;;;9.40;5.60;;;;;;;4.43;80.32;96553.52;105397;1296;22536;-83
2022/12/21 09:58:24;;;;;;;8.80;5.20;;;;;;;4.40;80.41;96550.73;105416;1305;22492;-83
2022/12/21 10:01:03;;;;;;;7.30;4.30;;;;;;;4.34;80.62;96544.76;105468;1299;22523;-83
2022/12/21 10:03:50;;;;;;;8.30;5.70;;;;;;;4.32;80.86;96549.30;105405;1304;22493;-83
2022/12/21 10:06:51;;;;;;;8.10;4.40;;;;;;;4.29;80.99;96555.18;105354;1305;22477;-83
2022/12/21 10:09:39;;;;;;;8.50;4.90;;;;;;;4.27;80.96;96534.99;105380;1302;22543;-83
2022/12/21 10:12:23;;;;;;;9.10;5.40;;;;;;;4.29;81.09;96538.33;105353;1304;22514;-84
2022/12/21 10:15:09;;;;;;;7.70;4.20;;;;;;;4.36;80.96;96541.85;105295;1305;26856;-84
2022/12/21 10:17:54;;;;;;;9.80;5.90;;;;;;;4.35;80.74;96542.30;105389;1305;22529;-84
2022/12/21 10:20:37;;;;;;;9.10;4.50;;;;;;;4.33;80.78;96545.15;105355;1305;22485;-83
2022/12/21 10:23:17;;;;;;;7.90;4.30;;;;;;;4.26;81.07;96545.84;105378;1300;22609;-83
2022/12/21 10:25:51;;;;;;;8.20;4.40;;;;;;;4.19;81.41;96548.93;105423;1304;25452;-84
2022/12/21 10:28:38;;;;;;;9.30;5.10;;;;;;;4.11;82.32;96546.67;105330;1305;22494;-83
2022/12/21 10:31:12;;;;;;;8.50;4.80;;;;;;;4.03;83.00;96542.49;105429;1300;22478;-84
2022/12/21 10:33:44;;;;;;;9.30;5.40;;;;;;;3.99;83.61;96540.59;105456;1305;24330;-84
2022/12/21 10:36:18;;;;;;;9.00;4.50;;;;;;;4.03;84.34;96539.66;105361;1305;31353;-84
2022/12/21 10:38:50;;;;;;;10.60;4.80;;;;;;;4.10;84.44;96531.19;105463;1305;24272;-83
2022/12/21 10:41:24;;;;;;;12.30;6.60;;;;;;;4.14;84.34;96523.73;105441;1291;22464;-84
2022/12/21 10:43:59;;;;;;;11.30;5.10;;;;;;;4.14;84.22;96536.65;105281;1305;22495;-82
2022/12/21 10:46:34;;;;;;;6.80;4.10;;;;;;;4.12;84.38;96530.79;105309;1305;22586;-83
2022/12/21 10:49:17;;;;;;;11.90;7.60;;;;;;;4.10;84.45;96542.58;105434;1295;25343;-84
2022/12/21 10:51:49;;;;;;;10.10;6.60;;;;;;;4.07;84.64;96535.73;105309;1296;22522;-84
2022/12/21 10:54:27;;;;;;;9.20;4.90;;;;;;;4.06;84.79;96543.10;105291;1294;26468;-84
2022/12/21 10:57:00;;;;;;;10.70;5.20;;;;;;;4.02;85.07;96527.37;105309;1289;22612;-84
2022/12/21 10:59:40;;;;;;;11.30;5.80;;;;;;;4.04;85.20;96525.19;105349;1303;22527;-83
2022/12/21 11:02:38;;;;;;;11.70;7.10;;;;;;;4.07;85.10;96532.22;105395;1281;22455;-84
2022/12/21 11:05:29;;;;;;;11.80;5.70;;;;;;;4.13;85.06;96524.45;105341;1299;24197;-84
2022/12/21 11:08:23;;;;;;;9.80;5.00;;;;;;;4.17;84.84;96521.47;105429;1290;25066;-84
2022/12/21 11:10:58;;;;;;;9.80;4.90;;;;;;;4.20;84.84;96522.39;105339;1304;24347;-85
2022/12/21 11:13:32;;;;;;;9.50;4.70;;;;;;;4.22;84.86;96517.17;105304;1305;24921;-83
2022/12/21 11:16:07;;;;;;;12.60;7.00;;;;;;;4.24;84.54;96513.86;105290;1305;23859;-84
2022/12/21 11:18:44;;;;;;;11.00;5.40;;;;;;;4.25;84.50;96510.58;105410;1305;22512;-83
2022/12/21 11:21:33;;;;;;;11.40;6.30;;;;;;;4.23;84.51;96509.52;105411;1290;22481;-83
2022/12/21 11:24:10;;;;;;;9.60;5.70;;;;;;;4.25;84.62;96514.70;105362;1305;34482;-83
2022/12/21 11:26:46;;;;;;;9.00;5.40;;;;;;;4.27;84.57;96519.52;105386;1305;22462;-83
2022/12/21 11:29:22;;;;;;;10.80;5.50;;;;;;;4.28;84.45;96518.16;105314;1305;25388;-84
2022/12/21 11:31:55;;;;;;;10.30;5.20;;;;;;;4.27;84.46;96523.88;105272;1300;22470;-84
2022/12/21 11:34:34;;;;;;;10.60;5.20;;;;;;;4.25;84.27;96520.91;105284;1305;27323;-83
2022/12/21 11:37:08;;;;;;;10.10;6.50;;;;;;;4.22;84.35;96536.59;105382;1297;22478;-83
2022/12/21 11:39:44;;;;;;;11.10;6.60;;;;;;;4.22;84.51;96533.09;105388;1305;22546;-84
2022/12/21 11:42:21;;;;;;;7.70;4.80;;;;;;;4.26;84.77;96528.07;105469;1305;22485;-83
2022/12/21 11:45:05;;;;;;;10.40;6.70;;;;;;;4.34;85.00;96527.38;105361;1305;35005;-83
2022/12/21 11:47:50;;;;;;;10.40;5.40;;;;;;;4.39;84.82;96518.13;105398;1297;22489;-83
2022/12/21 11:50:37;;;;;;;10.00;5.70;;;;;;;4.36;84.51;96514.55;105423;1283;25315;-83
2022/12/21 11:53:27;;;;;;;11.70;5.40;;;;;;;4.31;84.44;96513.21;105415;1305;22517;-84
2022/12/21 11:56:11;;;;;;;12.00;6.50;;;;;;;4.27;84.39;96509.45;105384;1290;22496;-83
2022/12/21 11:59:06;;;;;;;12.60;6.80;;;;;;;4.27;84.35;96510.48;105400;1305;22509;-83
2022/12/21 12:01:47;;;;;;;12.90;7.80;;;;;;;4.28;84.22;96512.14;105426;1305;22469;-83
2022/12/21 12:04:35;;;;;;;9.70;5.50;;;;;;;4.30;84.00;96507.33;105345;1288;23322;-83
2022/12/21 12:07:30;;;;;;;12.80;7.50;;;;;;;4.28;83.86;96506.77;105312;1305;22583;-83
2022/12/21 12:10:27;;;;;;;14.40;8.20;;;;;;;4.26;83.82;96504.18;105313;1291;22489;-83
2022/12/21 12:13:08;;;;;;;8.70;5.00;;;;;;;4.27;83.87;96503.30;105299;1305;22494;-83
2022/12/21 12:15:41;;;;;;;;;;;;;;;4.30;83.74;96504.80;105352;1290;56985;-83
2022/12/21 12:18:28;;;;;;;9.40;5.90;;;;;;;4.32;83.80;96509.36;105412;1294;22531;-83